sensor_id;sensor_type;location;lat;lon;timestamp;temperature;humidity
33023;DHT22;19390;51.460;5.710;2023-06-05T00:01:10;13.00;99.90
33023;DHT22;19390;51.460;5.710;2023-06-05T00:03:35;12.90;99.90
33023;DHT22;19390;51.460;5.710;2023-06-05T00:06:02;12.80;99.90
33023;DHT22;19390;51.460;5.710;2023-06-05T00:08:28;12.80;99.90
33023;DHT22;19390;51.460;5.710;2023-06-05T00:10:54;12.70;99.90
33023;DHT22;19390;51.460;5.710;2023-06-05T00:13:19;12.70;99.90
33023;DHT22;19390;51.460;5.710;2023-06-05T00:15:45;12.60;99.90
33023;DHT22;19390;51.460;5.710;2023-06-05T00:18:10;12.60;99.90
33023;DHT22;19390;51.460;5.710;2023-06-05T00:20:37;12.60;99.90
33023;DHT22;19390;51.460;5.710;2023-06-05T00:23:02;12.60;99.90
33023;DHT22;19390;51.460;5.710;2023-06-05T00:25:28;12.50;99.90
33023;DHT22;19390;51.460;5.710;2023-06-05T00:27:53;12.50;99.90
33023;DHT22;19390;51.460;5.710;2023-06-05T00:30:19;12.40;99.90
33023;DHT22;19390;51.460;5.710;2023-06-05T00:32:45;12.40;99.90
33023;DHT22;19390;51.460;5.710;2023-06-05T00:35:11;12.30;99.90
33023;DHT22;19390;51.460;5.710;2023-06-05T00:37:36;12.30;99.90
33023;DHT22;19390;51.460;5.710;2023-06-05T00:40:06;12.30;99.90
33023;DHT22;19390;51.460;5.710;2023-06-05T00:42:32;12.30;99.90
33023;DHT22;19390;51.460;5.710;2023-06-05T00:44:57;12.20;99.90
33023;DHT22;19390;51.460;5.710;2023-06-05T00:47:23;12.20;99.90
33023;DHT22;19390;51.460;5.710;2023-06-05T00:49:49;12.10;99.90
33023;DHT22;19390;51.460;5.710;2023-06-05T00:52:15;12.10;99.90
33023;DHT22;19390;51.460;5.710;2023-06-05T00:54:42;12.10;99.90
33023;DHT22;19390;51.460;5.710;2023-06-05T00:57:08;12.00;99.90
33023;DHT22;19390;51.460;5.710;2023-06-05T00:59:36;12.10;99.90
33023;DHT22;19390;51.460;5.710;2023-06-05T01:02:02;11.90;99.90
33023;DHT22;19390;51.460;5.710;2023-06-05T01:04:31;12.00;99.90
33023;DHT22;19390;51.460;5.710;2023-06-05T01:06:58;11.80;99.90
33023;DHT22;19390;51.460;5.710;2023-06-05T01:09:25;11.80;99.90
33023;DHT22;19390;51.460;5.710;2023-06-05T01:11:58;11.80;99.90
33023;DHT22;19390;51.460;5.710;2023-06-05T01:14:28;11.70;99.90
33023;DHT22;19390;51.460;5.710;2023-06-05T01:16:56;11.70;99.90
33023;DHT22;19390;51.460;5.710;2023-06-05T01:19:23;11.70;99.90
33023;DHT22;19390;51.460;5.710;2023-06-05T01:22:01;11.70;99.90
33023;DHT22;19390;51.460;5.710;2023-06-05T01:24:27;11.70;99.90
33023;DHT22;19390;51.460;5.710;2023-06-05T01:27:13;11.60;99.90
33023;DHT22;19390;51.460;5.710;2023-06-05T01:35:07;11.60;99.90
33023;DHT22;19390;51.460;5.710;2023-06-05T01:37:36;11.50;99.90
33023;DHT22;19390;51.460;5.710;2023-06-05T01:40:17;11.40;99.90
33023;DHT22;19390;51.460;5.710;2023-06-05T01:42:45;11.40;99.90
33023;DHT22;19390;51.460;5.710;2023-06-05T01:45:12;11.40;99.90
33023;DHT22;19390;51.460;5.710;2023-06-05T01:47:39;11.40;99.90
33023;DHT22;19390;51.460;5.710;2023-06-05T01:50:06;11.30;99.90
33023;DHT22;19390;51.460;5.710;2023-06-05T01:52:33;11.30;99.90
33023;DHT22;19390;51.460;5.710;2023-06-05T01:55:01;11.30;99.90
33023;DHT22;19390;51.460;5.710;2023-06-05T01:57:28;11.20;99.90
33023;DHT22;19390;51.460;5.710;2023-06-05T01:59:54;11.40;99.90
33023;DHT22;19390;51.460;5.710;2023-06-05T02:02:20;11.30;99.90
33023;DHT22;19390;51.460;5.710;2023-06-05T02:04:47;11.20;99.90
33023;DHT22;19390;51.460;5.710;2023-06-05T02:07:14;11.20;99.90
33023;DHT22;19390;51.460;5.710;2023-06-05T02:09:40;11.20;99.90
33023;DHT22;19390;51.460;5.710;2023-06-05T02:12:06;11.20;99.90
33023;DHT22;19390;51.460;5.710;2023-06-05T02:14:33;11.20;99.90
33023;DHT22;19390;51.460;5.710;2023-06-05T02:17:04;11.10;99.90
33023;DHT22;19390;51.460;5.710;2023-06-05T02:19:32;11.10;99.90
33023;DHT22;19390;51.460;5.710;2023-06-05T02:21:58;10.90;99.90
33023;DHT22;19390;51.460;5.710;2023-06-05T02:24:24;11.00;99.90
33023;DHT22;19390;51.460;5.710;2023-06-05T02:26:50;11.00;99.90
33023;DHT22;19390;51.460;5.710;2023-06-05T02:29:16;10.90;99.90
33023;DHT22;19390;51.460;5.710;2023-06-05T02:31:42;11.00;99.90
33023;DHT22;19390;51.460;5.710;2023-06-05T02:34:07;10.90;99.90
33023;DHT22;19390;51.460;5.710;2023-06-05T02:36:33;11.00;99.90
33023;DHT22;19390;51.460;5.710;2023-06-05T02:39:01;11.00;99.90
33023;DHT22;19390;51.460;5.710;2023-06-05T02:41:27;10.90;99.90
33023;DHT22;19390;51.460;5.710;2023-06-05T02:43:53;10.90;99.90
33023;DHT22;19390;51.460;5.710;2023-06-05T02:46:20;10.90;99.90
33023;DHT22;19390;51.460;5.710;2023-06-05T02:48:47;10.80;99.90
33023;DHT22;19390;51.460;5.710;2023-06-05T02:51:13;10.80;99.90
33023;DHT22;19390;51.460;5.710;2023-06-05T02:53:39;10.90;99.90
33023;DHT22;19390;51.460;5.710;2023-06-05T02:56:05;10.90;99.90
33023;DHT22;19390;51.460;5.710;2023-06-05T02:58:30;10.90;99.90
33023;DHT22;19390;51.460;5.710;2023-06-05T03:00:59;10.90;99.90
33023;DHT22;19390;51.460;5.710;2023-06-05T03:03:30;10.80;99.90
33023;DHT22;19390;51.460;5.710;2023-06-05T03:06:01;10.80;99.90
33023;DHT22;19390;51.460;5.710;2023-06-05T03:08:34;10.70;99.90
33023;DHT22;19390;51.460;5.710;2023-06-05T03:11:00;10.90;99.90
33023;DHT22;19390;51.460;5.710;2023-06-05T03:13:26;10.80;99.90
33023;DHT22;19390;51.460;5.710;2023-06-05T03:15:52;10.70;99.90
33023;DHT22;19390;51.460;5.710;2023-06-05T03:18:19;10.70;99.90
33023;DHT22;19390;51.460;5.710;2023-06-05T03:20:47;10.70;99.90
33023;DHT22;19390;51.460;5.710;2023-06-05T03:23:13;10.70;99.90
33023;DHT22;19390;51.460;5.710;2023-06-05T03:25:39;10.70;99.90
33023;DHT22;19390;51.460;5.710;2023-06-05T03:28:04;10.70;99.90
33023;DHT22;19390;51.460;5.710;2023-06-05T03:30:30;10.60;99.90
33023;DHT22;19390;51.460;5.710;2023-06-05T03:32:56;10.60;99.90
33023;DHT22;19390;51.460;5.710;2023-06-05T03:35:21;10.50;99.90
33023;DHT22;19390;51.460;5.710;2023-06-05T03:37:47;10.50;99.90
33023;DHT22;19390;51.460;5.710;2023-06-05T03:40:13;10.70;99.90
33023;DHT22;19390;51.460;5.710;2023-06-05T03:42:38;10.60;99.90
33023;DHT22;19390;51.460;5.710;2023-06-05T03:45:04;10.60;99.90
33023;DHT22;19390;51.460;5.710;2023-06-05T03:47:30;10.80;99.90
33023;DHT22;19390;51.460;5.710;2023-06-05T03:49:55;10.70;99.90
33023;DHT22;19390;51.460;5.710;2023-06-05T03:52:21;10.70;99.90
33023;DHT22;19390;51.460;5.710;2023-06-05T03:54:50;10.70;99.90
33023;DHT22;19390;51.460;5.710;2023-06-05T03:57:19;10.70;99.90
33023;DHT22;19390;51.460;5.710;2023-06-05T03:59:46;10.70;99.90
33023;DHT22;19390;51.460;5.710;2023-06-05T04:02:12;10.80;99.90
33023;DHT22;19390;51.460;5.710;2023-06-05T04:04:38;10.80;99.90
33023;DHT22;19390;51.460;5.710;2023-06-05T04:07:04;10.80;99.90
33023;DHT22;19390;51.460;5.710;2023-06-05T04:09:30;10.80;99.90
33023;DHT22;19390;51.460;5.710;2023-06-05T04:11:57;10.90;99.90
33023;DHT22;19390;51.460;5.710;2023-06-05T04:14:23;10.90;99.90
33023;DHT22;19390;51.460;5.710;2023-06-05T04:16:48;10.90;99.90
33023;DHT22;19390;51.460;5.710;2023-06-05T04:19:14;10.90;99.90
33023;DHT22;19390;51.460;5.710;2023-06-05T04:21:40;10.90;99.90
33023;DHT22;19390;51.460;5.710;2023-06-05T04:24:07;10.90;99.90
33023;DHT22;19390;51.460;5.710;2023-06-05T04:26:35;11.00;99.90
33023;DHT22;19390;51.460;5.710;2023-06-05T04:29:02;11.00;99.90
33023;DHT22;19390;51.460;5.710;2023-06-05T04:31:32;11.00;99.90
33023;DHT22;19390;51.460;5.710;2023-06-05T04:33:59;11.00;99.90
33023;DHT22;19390;51.460;5.710;2023-06-05T04:36:27;11.00;99.90
33023;DHT22;19390;51.460;5.710;2023-06-05T04:38:53;11.10;99.90
33023;DHT22;19390;51.460;5.710;2023-06-05T04:41:19;11.20;99.90
33023;DHT22;19390;51.460;5.710;2023-06-05T04:43:47;11.20;99.90
33023;DHT22;19390;51.460;5.710;2023-06-05T04:46:12;11.20;99.90
33023;DHT22;19390;51.460;5.710;2023-06-05T04:48:38;11.20;99.90
33023;DHT22;19390;51.460;5.710;2023-06-05T04:51:04;11.50;99.90
33023;DHT22;19390;51.460;5.710;2023-06-05T04:53:29;11.80;99.90
33023;DHT22;19390;51.460;5.710;2023-06-05T04:55:57;11.70;99.90
33023;DHT22;19390;51.460;5.710;2023-06-05T04:58:25;11.70;99.90
33023;DHT22;19390;51.460;5.710;2023-06-05T05:00:50;11.60;99.90
33023;DHT22;19390;51.460;5.710;2023-06-05T05:03:16;11.80;99.90
33023;DHT22;19390;51.460;5.710;2023-06-05T05:05:43;12.90;99.90
33023;DHT22;19390;51.460;5.710;2023-06-05T05:08:08;13.90;99.90
33023;DHT22;19390;51.460;5.710;2023-06-05T05:10:34;14.70;99.90
33023;DHT22;19390;51.460;5.710;2023-06-05T05:13:00;15.50;99.90
33023;DHT22;19390;51.460;5.710;2023-06-05T05:15:29;15.30;99.90
33023;DHT22;19390;51.460;5.710;2023-06-05T05:17:57;15.20;99.90
33023;DHT22;19390;51.460;5.710;2023-06-05T05:20:23;15.50;99.90
33023;DHT22;19390;51.460;5.710;2023-06-05T05:22:52;15.40;99.90
33023;DHT22;19390;51.460;5.710;2023-06-05T05:25:18;15.80;99.90
33023;DHT22;19390;51.460;5.710;2023-06-05T05:27:43;15.90;99.90
33023;DHT22;19390;51.460;5.710;2023-06-05T05:30:09;16.50;99.90
33023;DHT22;19390;51.460;5.710;2023-06-05T05:32:35;16.30;99.90
33023;DHT22;19390;51.460;5.710;2023-06-05T05:35:00;16.80;99.90
33023;DHT22;19390;51.460;5.710;2023-06-05T05:37:26;16.70;99.90
33023;DHT22;19390;51.460;5.710;2023-06-05T05:39:52;17.00;99.90
33023;DHT22;19390;51.460;5.710;2023-06-05T05:42:18;17.20;99.90
33023;DHT22;19390;51.460;5.710;2023-06-05T05:44:43;17.90;99.90
33023;DHT22;19390;51.460;5.710;2023-06-05T05:47:10;18.00;99.90
33023;DHT22;19390;51.460;5.710;2023-06-05T05:49:36;18.20;99.90
33023;DHT22;19390;51.460;5.710;2023-06-05T05:52:02;18.10;99.90
33023;DHT22;19390;51.460;5.710;2023-06-05T05:54:28;19.10;99.90
33023;DHT22;19390;51.460;5.710;2023-06-05T05:56:54;19.00;99.90
33023;DHT22;19390;51.460;5.710;2023-06-05T05:59:20;19.90;99.90
33023;DHT22;19390;51.460;5.710;2023-06-05T06:01:47;20.40;99.90
33023;DHT22;19390;51.460;5.710;2023-06-05T06:04:15;20.20;99.90
33023;DHT22;19390;51.460;5.710;2023-06-05T06:06:41;19.60;99.90
33023;DHT22;19390;51.460;5.710;2023-06-05T06:09:06;18.80;99.90
33023;DHT22;19390;51.460;5.710;2023-06-05T06:11:36;18.80;99.90
33023;DHT22;19390;51.460;5.710;2023-06-05T06:14:02;19.50;99.90
33023;DHT22;19390;51.460;5.710;2023-06-05T06:16:28;21.10;99.90
33023;DHT22;19390;51.460;5.710;2023-06-05T06:18:53;19.50;99.90
33023;DHT22;19390;51.460;5.710;2023-06-05T06:21:21;19.20;99.90
33023;DHT22;19390;51.460;5.710;2023-06-05T06:23:46;20.70;99.90
33023;DHT22;19390;51.460;5.710;2023-06-05T06:26:13;20.80;99.90
33023;DHT22;19390;51.460;5.710;2023-06-05T06:28:40;20.50;99.90
33023;DHT22;19390;51.460;5.710;2023-06-05T06:31:05;20.20;99.90
33023;DHT22;19390;51.460;5.710;2023-06-05T06:33:32;20.30;99.90
33023;DHT22;19390;51.460;5.710;2023-06-05T06:35:57;21.20;99.90
33023;DHT22;19390;51.460;5.710;2023-06-05T06:38:26;21.70;99.90
33023;DHT22;19390;51.460;5.710;2023-06-05T06:40:57;22.20;99.90
33023;DHT22;19390;51.460;5.710;2023-06-05T06:43:23;22.20;99.90
33023;DHT22;19390;51.460;5.710;2023-06-05T06:45:49;21.70;99.90
33023;DHT22;19390;51.460;5.710;2023-06-05T06:48:16;21.30;99.90
33023;DHT22;19390;51.460;5.710;2023-06-05T06:50:46;22.60;99.90
33023;DHT22;19390;51.460;5.710;2023-06-05T06:53:11;23.20;99.90
33023;DHT22;19390;51.460;5.710;2023-06-05T06:55:37;22.40;99.90
33023;DHT22;19390;51.460;5.710;2023-06-05T06:58:03;24.10;99.90
33023;DHT22;19390;51.460;5.710;2023-06-05T07:00:29;22.80;99.90
33023;DHT22;19390;51.460;5.710;2023-06-05T07:02:55;22.90;99.90
33023;DHT22;19390;51.460;5.710;2023-06-05T07:05:20;24.10;99.90
33023;DHT22;19390;51.460;5.710;2023-06-05T07:07:46;24.00;99.90
33023;DHT22;19390;51.460;5.710;2023-06-05T07:10:12;23.40;99.90
33023;DHT22;19390;51.460;5.710;2023-06-05T07:12:37;24.90;99.90
33023;DHT22;19390;51.460;5.710;2023-06-05T07:15:03;24.60;99.90
33023;DHT22;19390;51.460;5.710;2023-06-05T07:17:29;25.40;99.90
33023;DHT22;19390;51.460;5.710;2023-06-05T07:19:56;24.80;99.90
33023;DHT22;19390;51.460;5.710;2023-06-05T07:22:22;24.40;99.90
33023;DHT22;19390;51.460;5.710;2023-06-05T07:24:50;23.80;99.90
33023;DHT22;19390;51.460;5.710;2023-06-05T07:27:16;24.30;99.90
33023;DHT22;19390;51.460;5.710;2023-06-05T07:29:42;25.70;99.90
33023;DHT22;19390;51.460;5.710;2023-06-05T07:32:08;25.80;99.90
33023;DHT22;19390;51.460;5.710;2023-06-05T07:34:34;26.70;99.90
33023;DHT22;19390;51.460;5.710;2023-06-05T07:37:03;26.20;99.90
33023;DHT22;19390;51.460;5.710;2023-06-05T07:39:28;26.80;99.90
33023;DHT22;19390;51.460;5.710;2023-06-05T07:41:54;27.20;99.90
33023;DHT22;19390;51.460;5.710;2023-06-05T07:44:20;26.20;99.90
33023;DHT22;19390;51.460;5.710;2023-06-05T07:46:49;26.40;99.90
33023;DHT22;19390;51.460;5.710;2023-06-05T07:49:16;26.10;99.90
33023;DHT22;19390;51.460;5.710;2023-06-05T07:51:42;24.50;99.90
33023;DHT22;19390;51.460;5.710;2023-06-05T07:54:13;26.00;99.90
33023;DHT22;19390;51.460;5.710;2023-06-05T07:56:39;26.60;99.90
33023;DHT22;19390;51.460;5.710;2023-06-05T07:59:06;26.30;99.90
33023;DHT22;19390;51.460;5.710;2023-06-05T08:01:35;27.10;99.90
33023;DHT22;19390;51.460;5.710;2023-06-05T08:04:11;26.90;99.90
33023;DHT22;19390;51.460;5.710;2023-06-05T08:06:37;27.20;99.90
33023;DHT22;19390;51.460;5.710;2023-06-05T08:09:06;27.40;99.90
33023;DHT22;19390;51.460;5.710;2023-06-05T08:11:37;28.00;99.90
33023;DHT22;19390;51.460;5.710;2023-06-05T08:14:05;28.60;99.90
33023;DHT22;19390;51.460;5.710;2023-06-05T08:16:32;26.80;99.90
33023;DHT22;19390;51.460;5.710;2023-06-05T08:18:57;27.60;99.90
33023;DHT22;19390;51.460;5.710;2023-06-05T08:21:23;27.10;99.90
33023;DHT22;19390;51.460;5.710;2023-06-05T08:23:48;29.10;99.90
33023;DHT22;19390;51.460;5.710;2023-06-05T08:26:14;28.80;99.90
33023;DHT22;19390;51.460;5.710;2023-06-05T08:28:41;28.80;99.90
33023;DHT22;19390;51.460;5.710;2023-06-05T08:31:09;29.20;99.90
33023;DHT22;19390;51.460;5.710;2023-06-05T08:33:36;29.50;99.90
33023;DHT22;19390;51.460;5.710;2023-06-05T08:36:03;28.30;99.90
33023;DHT22;19390;51.460;5.710;2023-06-05T08:38:30;28.80;99.90
33023;DHT22;19390;51.460;5.710;2023-06-05T08:41:05;29.40;99.90
33023;DHT22;19390;51.460;5.710;2023-06-05T08:43:39;29.90;99.90
33023;DHT22;19390;51.460;5.710;2023-06-05T08:46:08;29.90;99.90
33023;DHT22;19390;51.460;5.710;2023-06-05T08:48:42;29.50;99.90
33023;DHT22;19390;51.460;5.710;2023-06-05T08:51:11;29.40;99.90
33023;DHT22;19390;51.460;5.710;2023-06-05T08:53:39;28.40;99.90
33023;DHT22;19390;51.460;5.710;2023-06-05T08:56:06;29.40;99.90
33023;DHT22;19390;51.460;5.710;2023-06-05T08:58:32;30.20;99.90
33023;DHT22;19390;51.460;5.710;2023-06-05T09:00:59;29.20;99.90
33023;DHT22;19390;51.460;5.710;2023-06-05T09:03:25;29.90;99.90
33023;DHT22;19390;51.460;5.710;2023-06-05T09:05:52;31.40;99.90
33023;DHT22;19390;51.460;5.710;2023-06-05T09:08:28;31.10;99.90
33023;DHT22;19390;51.460;5.710;2023-06-05T09:11:26;30.60;99.90
33023;DHT22;19390;51.460;5.710;2023-06-05T09:13:54;29.00;99.90
33023;DHT22;19390;51.460;5.710;2023-06-05T09:16:41;31.40;99.90
33023;DHT22;19390;51.460;5.710;2023-06-05T09:19:11;29.30;99.90
33023;DHT22;19390;51.460;5.710;2023-06-05T09:21:37;29.40;99.90
33023;DHT22;19390;51.460;5.710;2023-06-05T09:26:54;31.00;99.90
33023;DHT22;19390;51.460;5.710;2023-06-05T09:29:30;31.00;99.90
33023;DHT22;19390;51.460;5.710;2023-06-05T09:32:01;30.60;99.90
33023;DHT22;19390;51.460;5.710;2023-06-05T09:34:37;32.90;99.90
33023;DHT22;19390;51.460;5.710;2023-06-05T09:37:09;32.90;99.90
33023;DHT22;19390;51.460;5.710;2023-06-05T09:39:36;32.10;99.90
33023;DHT22;19390;51.460;5.710;2023-06-05T09:42:02;32.20;99.90
33023;DHT22;19390;51.460;5.710;2023-06-05T09:44:29;31.40;99.90
33023;DHT22;19390;51.460;5.710;2023-06-05T09:47:00;31.30;99.90
33023;DHT22;19390;51.460;5.710;2023-06-05T09:49:30;32.70;99.90
33023;DHT22;19390;51.460;5.710;2023-06-05T09:52:01;32.60;99.90
33023;DHT22;19390;51.460;5.710;2023-06-05T09:54:29;31.80;99.90
33023;DHT22;19390;51.460;5.710;2023-06-05T09:57:03;30.30;99.90
33023;DHT22;19390;51.460;5.710;2023-06-05T09:59:32;30.10;99.90
33023;DHT22;19390;51.460;5.710;2023-06-05T10:02:04;32.10;99.90
33023;DHT22;19390;51.460;5.710;2023-06-05T10:04:33;31.70;99.90
33023;DHT22;19390;51.460;5.710;2023-06-05T10:07:03;32.40;99.90
33023;DHT22;19390;51.460;5.710;2023-06-05T10:09:30;32.10;99.90
33023;DHT22;19390;51.460;5.710;2023-06-05T10:11:59;31.80;99.90
33023;DHT22;19390;51.460;5.710;2023-06-05T10:14:26;33.10;99.90
33023;DHT22;19390;51.460;5.710;2023-06-05T10:16:51;31.50;99.90
33023;DHT22;19390;51.460;5.710;2023-06-05T10:19:19;31.40;99.90
33023;DHT22;19390;51.460;5.710;2023-06-05T10:21:48;31.70;99.90
33023;DHT22;19390;51.460;5.710;2023-06-05T10:24:33;32.50;99.90
33023;DHT22;19390;51.460;5.710;2023-06-05T10:38:19;33.70;99.90
33023;DHT22;19390;51.460;5.710;2023-06-05T10:40:50;32.80;99.90
33023;DHT22;19390;51.460;5.710;2023-06-05T10:43:36;32.60;99.90
33023;DHT22;19390;51.460;5.710;2023-06-05T10:46:27;32.60;99.90
33023;DHT22;19390;51.460;5.710;2023-06-05T10:49:07;32.60;99.90
33023;DHT22;19390;51.460;5.710;2023-06-05T10:54:10;33.60;99.90
33023;DHT22;19390;51.460;5.710;2023-06-05T10:59:28;34.30;99.90
33023;DHT22;19390;51.460;5.710;2023-06-05T11:07:34;34.20;99.90
33023;DHT22;19390;51.460;5.710;2023-06-05T11:17:49;32.30;99.90
33023;DHT22;19390;51.460;5.710;2023-06-05T11:27:51;33.70;99.90
33023;DHT22;19390;51.460;5.710;2023-06-05T11:30:22;33.90;99.90
33023;DHT22;19390;51.460;5.710;2023-06-05T11:32:49;31.50;99.90
33023;DHT22;19390;51.460;5.710;2023-06-05T11:35:21;33.10;99.90
33023;DHT22;19390;51.460;5.710;2023-06-05T11:37:46;32.60;99.90
33023;DHT22;19390;51.460;5.710;2023-06-05T11:40:24;32.10;99.90
33023;DHT22;19390;51.460;5.710;2023-06-05T11:42:50;31.60;99.90
33023;DHT22;19390;51.460;5.710;2023-06-05T11:45:16;30.90;99.90
33023;DHT22;19390;51.460;5.710;2023-06-05T11:47:41;32.80;99.90
33023;DHT22;19390;51.460;5.710;2023-06-05T11:50:12;32.80;99.90
33023;DHT22;19390;51.460;5.710;2023-06-05T11:52:38;32.70;99.90
33023;DHT22;19390;51.460;5.710;2023-06-05T11:55:15;32.70;99.90
33023;DHT22;19390;51.460;5.710;2023-06-05T11:57:45;32.70;99.90
33023;DHT22;19390;51.460;5.710;2023-06-05T12:00:12;32.90;99.90
33023;DHT22;19390;51.460;5.710;2023-06-05T12:02:40;33.20;99.90
33023;DHT22;19390;51.460;5.710;2023-06-05T12:05:07;31.50;99.90
33023;DHT22;19390;51.460;5.710;2023-06-05T12:07:35;33.20;99.90
33023;DHT22;19390;51.460;5.710;2023-06-05T12:10:06;33.60;99.90
33023;DHT22;19390;51.460;5.710;2023-06-05T12:12:33;32.60;99.90
33023;DHT22;19390;51.460;5.710;2023-06-05T12:15:17;32.30;99.90
33023;DHT22;19390;51.460;5.710;2023-06-05T12:17:54;32.80;99.90
33023;DHT22;19390;51.460;5.710;2023-06-05T12:20:21;31.60;99.90
33023;DHT22;19390;51.460;5.710;2023-06-05T12:22:47;32.30;99.90
33023;DHT22;19390;51.460;5.710;2023-06-05T12:25:20;32.10;99.90
33023;DHT22;19390;51.460;5.710;2023-06-05T12:27:47;32.30;99.90
33023;DHT22;19390;51.460;5.710;2023-06-05T12:30:13;31.90;99.90
33023;DHT22;19390;51.460;5.710;2023-06-05T12:32:40;30.60;99.90
33023;DHT22;19390;51.460;5.710;2023-06-05T12:35:21;31.60;99.90
33023;DHT22;19390;51.460;5.710;2023-06-05T12:37:48;33.00;99.90
33023;DHT22;19390;51.460;5.710;2023-06-05T12:40:14;32.40;99.90
33023;DHT22;19390;51.460;5.710;2023-06-05T12:42:42;30.70;99.90
33023;DHT22;19390;51.460;5.710;2023-06-05T12:45:09;32.10;99.90
33023;DHT22;19390;51.460;5.710;2023-06-05T12:47:36;31.70;99.90
33023;DHT22;19390;51.460;5.710;2023-06-05T12:50:05;33.00;99.90
33023;DHT22;19390;51.460;5.710;2023-06-05T12:52:31;31.80;99.90
33023;DHT22;19390;51.460;5.710;2023-06-05T12:54:57;31.40;99.90
33023;DHT22;19390;51.460;5.710;2023-06-05T12:57:23;31.60;99.90
33023;DHT22;19390;51.460;5.710;2023-06-05T12:59:51;30.60;99.90
33023;DHT22;19390;51.460;5.710;2023-06-05T13:02:17;32.30;99.90
33023;DHT22;19390;51.460;5.710;2023-06-05T13:04:43;31.60;99.90
33023;DHT22;19390;51.460;5.710;2023-06-05T13:07:08;31.80;99.90
33023;DHT22;19390;51.460;5.710;2023-06-05T13:09:36;32.30;99.90
33023;DHT22;19390;51.460;5.710;2023-06-05T13:12:02;30.60;99.90
33023;DHT22;19390;51.460;5.710;2023-06-05T13:14:29;32.10;99.90
33023;DHT22;19390;51.460;5.710;2023-06-05T13:16:56;32.40;99.90
33023;DHT22;19390;51.460;5.710;2023-06-05T13:19:22;31.40;99.90
33023;DHT22;19390;51.460;5.710;2023-06-05T13:21:48;31.30;99.90
33023;DHT22;19390;51.460;5.710;2023-06-05T13:24:15;31.20;99.90
33023;DHT22;19390;51.460;5.710;2023-06-05T13:26:40;31.30;99.90
33023;DHT22;19390;51.460;5.710;2023-06-05T13:29:09;29.70;99.90
33023;DHT22;19390;51.460;5.710;2023-06-05T13:31:35;30.00;99.90
33023;DHT22;19390;51.460;5.710;2023-06-05T13:34:01;29.40;99.90
33023;DHT22;19390;51.460;5.710;2023-06-05T13:36:27;29.30;99.90
33023;DHT22;19390;51.460;5.710;2023-06-05T13:38:53;28.90;99.90
33023;DHT22;19390;51.460;5.710;2023-06-05T13:41:19;28.90;99.90
33023;DHT22;19390;51.460;5.710;2023-06-05T13:43:44;29.10;99.90
33023;DHT22;19390;51.460;5.710;2023-06-05T13:46:10;28.40;99.90
33023;DHT22;19390;51.460;5.710;2023-06-05T13:48:36;30.00;99.90
33023;DHT22;19390;51.460;5.710;2023-06-05T13:51:03;30.00;99.90
33023;DHT22;19390;51.460;5.710;2023-06-05T13:53:28;29.90;99.90
33023;DHT22;19390;51.460;5.710;2023-06-05T13:56:00;29.80;99.90
33023;DHT22;19390;51.460;5.710;2023-06-05T13:58:26;28.20;99.90
33023;DHT22;19390;51.460;5.710;2023-06-05T14:00:51;29.00;99.90
33023;DHT22;19390;51.460;5.710;2023-06-05T14:03:17;28.40;99.90
33023;DHT22;19390;51.460;5.710;2023-06-05T14:05:42;28.30;99.90
33023;DHT22;19390;51.460;5.710;2023-06-05T14:08:08;27.80;99.90
33023;DHT22;19390;51.460;5.710;2023-06-05T14:10:34;28.70;99.90
33023;DHT22;19390;51.460;5.710;2023-06-05T14:13:01;29.10;99.90
33023;DHT22;19390;51.460;5.710;2023-06-05T14:15:27;28.90;99.90
33023;DHT22;19390;51.460;5.710;2023-06-05T14:17:53;28.80;99.90
33023;DHT22;19390;51.460;5.710;2023-06-05T14:20:19;28.60;99.90
33023;DHT22;19390;51.460;5.710;2023-06-05T14:22:45;27.90;99.90
33023;DHT22;19390;51.460;5.710;2023-06-05T14:25:12;28.30;99.90
33023;DHT22;19390;51.460;5.710;2023-06-05T14:27:37;27.60;99.90
33023;DHT22;19390;51.460;5.710;2023-06-05T14:30:03;28.20;99.90
33023;DHT22;19390;51.460;5.710;2023-06-05T14:32:29;28.80;99.90
33023;DHT22;19390;51.460;5.710;2023-06-05T14:34:55;26.80;99.90
33023;DHT22;19390;51.460;5.710;2023-06-05T14:37:20;28.00;99.90
33023;DHT22;19390;51.460;5.710;2023-06-05T14:39:46;27.70;99.90
33023;DHT22;19390;51.460;5.710;2023-06-05T14:42:11;27.70;99.90
33023;DHT22;19390;51.460;5.710;2023-06-05T14:44:37;28.00;99.90
33023;DHT22;19390;51.460;5.710;2023-06-05T14:47:03;28.30;99.90
33023;DHT22;19390;51.460;5.710;2023-06-05T14:49:28;28.40;99.90
33023;DHT22;19390;51.460;5.710;2023-06-05T14:51:54;28.30;99.90
33023;DHT22;19390;51.460;5.710;2023-06-05T14:54:20;27.60;99.90
33023;DHT22;19390;51.460;5.710;2023-06-05T14:56:45;27.50;99.90
33023;DHT22;19390;51.460;5.710;2023-06-05T14:59:13;27.10;99.90
33023;DHT22;19390;51.460;5.710;2023-06-05T15:01:39;26.90;99.90
33023;DHT22;19390;51.460;5.710;2023-06-05T15:04:05;26.90;99.90
33023;DHT22;19390;51.460;5.710;2023-06-05T15:06:31;27.30;99.90
33023;DHT22;19390;51.460;5.710;2023-06-05T15:08:56;27.20;99.90
33023;DHT22;19390;51.460;5.710;2023-06-05T15:11:22;27.20;99.90
33023;DHT22;19390;51.460;5.710;2023-06-05T15:13:47;26.80;99.90
33023;DHT22;19390;51.460;5.710;2023-06-05T15:16:13;26.90;99.90
33023;DHT22;19390;51.460;5.710;2023-06-05T15:18:39;27.10;99.90
33023;DHT22;19390;51.460;5.710;2023-06-05T15:21:05;27.30;99.90
33023;DHT22;19390;51.460;5.710;2023-06-05T15:23:30;27.00;99.90
33023;DHT22;19390;51.460;5.710;2023-06-05T15:25:56;26.80;99.90
33023;DHT22;19390;51.460;5.710;2023-06-05T15:28:21;26.70;99.90
33023;DHT22;19390;51.460;5.710;2023-06-05T15:30:47;26.30;99.90
33023;DHT22;19390;51.460;5.710;2023-06-05T15:33:14;26.40;99.90
33023;DHT22;19390;51.460;5.710;2023-06-05T15:35:40;25.90;99.90
33023;DHT22;19390;51.460;5.710;2023-06-05T15:38:08;25.70;99.90
33023;DHT22;19390;51.460;5.710;2023-06-05T15:40:35;25.90;99.90
33023;DHT22;19390;51.460;5.710;2023-06-05T15:43:06;26.00;99.90
33023;DHT22;19390;51.460;5.710;2023-06-05T15:45:34;25.90;99.90
33023;DHT22;19390;51.460;5.710;2023-06-05T15:48:00;25.70;99.90
33023;DHT22;19390;51.460;5.710;2023-06-05T15:50:26;25.60;99.90
33023;DHT22;19390;51.460;5.710;2023-06-05T15:52:52;25.80;99.90
33023;DHT22;19390;51.460;5.710;2023-06-05T15:55:17;25.80;99.90
33023;DHT22;19390;51.460;5.710;2023-06-05T15:57:43;25.90;99.90
33023;DHT22;19390;51.460;5.710;2023-06-05T16:00:11;25.60;99.90
33023;DHT22;19390;51.460;5.710;2023-06-05T16:02:38;25.60;99.90
33023;DHT22;19390;51.460;5.710;2023-06-05T16:05:05;25.90;99.90
33023;DHT22;19390;51.460;5.710;2023-06-05T16:07:31;25.60;99.90
33023;DHT22;19390;51.460;5.710;2023-06-05T16:09:56;25.20;99.90
33023;DHT22;19390;51.460;5.710;2023-06-05T16:12:22;25.30;99.90
33023;DHT22;19390;51.460;5.710;2023-06-05T16:14:48;25.40;99.90
33023;DHT22;19390;51.460;5.710;2023-06-05T16:17:13;25.50;99.90